createdAt,value
2022-08-07T00:02:36.425Z,2.40
2022-08-07T00:04:59.769Z,2.30
2022-08-07T00:07:27.280Z,2.38
2022-08-07T00:10:11.066Z,2.63
2022-08-07T00:12:43.662Z,2.13
2022-08-07T00:15:25.788Z,2.60
2022-08-07T00:18:05.818Z,2.30
2022-08-07T00:20:34.407Z,2.85
2022-08-07T00:23:02.385Z,2.60
2022-08-07T00:25:37.282Z,3.10
2022-08-07T00:28:08.714Z,2.40
2022-08-07T00:30:37.504Z,2.95
2022-08-07T00:33:05.426Z,2.78
2022-08-07T00:35:35.154Z,2.55
2022-08-07T00:38:03.578Z,2.38
2022-08-07T00:40:39.624Z,2.60
2022-08-07T00:43:59.234Z,2.55
2022-08-07T00:46:01.971Z,3.00
2022-08-07T00:48:31.990Z,2.28
2022-08-07T00:51:00.521Z,2.85
2022-08-07T00:53:38.797Z,2.23
2022-08-07T00:56:15.535Z,2.65
2022-08-07T00:58:43.902Z,2.78
2022-08-07T01:01:15.384Z,2.60
2022-08-07T01:03:56.771Z,2.42
2022-08-07T01:06:28.915Z,2.80
2022-08-07T01:08:58.629Z,3.08
2022-08-07T01:12:09.747Z,2.90
2022-08-07T01:14:28.467Z,2.90
2022-08-07T01:16:56.563Z,2.60
2022-08-07T01:19:26.539Z,2.80
2022-08-07T01:21:55.276Z,3.00
2022-08-07T01:24:27.534Z,2.67
2022-08-07T01:26:54.688Z,2.65
2022-08-07T01:29:27.983Z,2.80
2022-08-07T01:32:05.383Z,2.93
2022-08-07T01:34:33.190Z,2.97
2022-08-07T01:37:05.816Z,2.92
2022-08-07T01:39:41.399Z,3.40
2022-08-07T01:42:38.393Z,3.05
2022-08-07T01:45:09.666Z,2.67
2022-08-07T01:48:21.370Z,3.08
2022-08-07T01:50:31.180Z,3.00
2022-08-07T01:53:00.069Z,2.92
2022-08-07T01:55:33.789Z,2.80
2022-08-07T01:58:29.086Z,3.70
2022-08-07T02:01:09.915Z,2.67
2022-08-07T02:03:50.209Z,3.00
2022-08-07T02:06:31.229Z,2.90
2022-08-07T02:09:05.366Z,3.30
2022-08-07T02:12:03.747Z,2.87
2022-08-07T02:14:40.181Z,2.83
2022-08-07T02:17:24.768Z,3.50
2022-08-07T02:20:05.205Z,3.35
2022-08-07T02:22:41.136Z,3.13
2022-08-07T02:25:13.921Z,3.90
2022-08-07T02:27:54.764Z,3.28
2022-08-07T02:30:22.533Z,3.50
2022-08-07T02:33:07.169Z,3.50
2022-08-07T02:36:28.700Z,3.72
2022-08-07T02:38:35.430Z,3.50
2022-08-07T02:41:04.783Z,3.40
2022-08-07T02:43:39.539Z,3.70
2022-08-07T02:46:08.616Z,3.85
2022-08-07T02:48:36.776Z,4.28
2022-08-07T02:51:14.265Z,3.93
2022-08-07T02:53:57.940Z,3.40
2022-08-07T02:56:27.967Z,4.10
2022-08-07T02:58:55.596Z,3.55
2022-08-07T03:01:35.671Z,3.97
2022-08-07T03:04:12.905Z,3.70
2022-08-07T03:06:44.798Z,4.10
2022-08-07T03:09:14.875Z,4.00
2022-08-07T03:12:06.835Z,3.65
2022-08-07T03:14:37.687Z,3.65
2022-08-07T03:17:08.739Z,4.00
2022-08-07T03:19:37.432Z,4.15
2022-08-07T03:22:07.709Z,3.67
2022-08-07T03:24:46.518Z,3.70
2022-08-07T03:27:15.800Z,3.83
2022-08-07T03:29:57.894Z,3.80
2022-08-07T03:32:31.243Z,3.60
2022-08-07T03:35:18.112Z,3.88
2022-08-07T03:37:53.777Z,3.63
2022-08-07T03:40:30.761Z,4.25
2022-08-07T03:43:04.551Z,4.10
2022-08-07T03:45:43.712Z,4.10
2022-08-07T03:48:15.993Z,4.03
2022-08-07T03:50:55.893Z,3.97
2022-08-07T03:53:50.256Z,4.68
2022-08-07T03:56:33.145Z,3.80
2022-08-07T03:59:09.984Z,4.22
2022-08-07T04:01:45.455Z,4.40
2022-08-07T04:04:17.183Z,4.10
2022-08-07T04:06:46.291Z,4.28
2022-08-07T04:09:19.662Z,4.60
2022-08-07T04:12:21.115Z,4.50
2022-08-07T04:14:43.736Z,4.68
2022-08-07T04:17:20.418Z,4.63
2022-08-07T04:20:02.932Z,3.95
2022-08-07T04:22:33.383Z,4.40
2022-08-07T04:25:08.854Z,4.55
2022-08-07T04:27:44.135Z,4.35
2022-08-07T04:30:36.000Z,4.50
2022-08-07T04:33:08.375Z,4.50
2022-08-07T04:35:38.595Z,3.77
2022-08-07T04:38:13.170Z,3.83
2022-08-07T04:40:52.481Z,4.40
2022-08-07T04:44:13.188Z,4.68
2022-08-07T04:46:34.840Z,4.25
2022-08-07T04:49:37.834Z,4.10
2022-08-07T04:52:51.853Z,4.82
2022-08-07T04:58:11.901Z,4.30
2022-08-07T04:58:27.943Z,4.20
2022-08-07T05:01:21.464Z,4.53
2022-08-07T05:04:08.846Z,4.27
2022-08-07T05:07:19.622Z,4.35
2022-08-07T05:10:11.618Z,4.65
2022-08-07T05:14:44.560Z,4.60
2022-08-07T05:15:53.591Z,4.20
2022-08-07T05:18:21.455Z,4.13
2022-08-07T05:20:54.634Z,4.30
2022-08-07T05:23:41.493Z,3.95
2022-08-07T05:26:23.552Z,4.82
2022-08-07T05:28:56.383Z,5.32
2022-08-07T05:31:34.589Z,4.80
2022-08-07T05:34:05.784Z,4.95
2022-08-07T05:36:42.391Z,4.82
2022-08-07T05:40:17.227Z,5.50
2022-08-07T05:42:12.540Z,4.63
2022-08-07T05:44:52.988Z,4.70
2022-08-07T05:47:38.426Z,4.88
2022-08-07T05:50:17.819Z,5.40
2022-08-07T05:52:44.752Z,5.25
2022-08-07T05:55:13.234Z,5.80
2022-08-07T05:57:45.668Z,5.60
2022-08-07T06:00:16.449Z,5.57
2022-08-07T06:02:53.614Z,5.80
2022-08-07T06:05:25.829Z,5.22
2022-08-07T06:08:14.430Z,6.65
2022-08-07T06:10:52.009Z,5.60
2022-08-07T06:14:11.763Z,5.68
2022-08-07T06:16:13.491Z,5.70
2022-08-07T06:18:42.960Z,5.57
2022-08-07T06:22:15.858Z,5.50
2022-08-07T06:24:37.444Z,5.27
2022-08-07T06:26:45.425Z,5.40
2022-08-07T06:29:14.121Z,5.00
2022-08-07T06:31:49.938Z,5.80
2022-08-07T06:34:20.757Z,5.90
2022-08-07T06:36:52.108Z,5.13
2022-08-07T06:40:17.253Z,5.80
2022-08-07T06:42:15.505Z,5.38
2022-08-07T06:45:01.788Z,5.10
2022-08-07T06:47:28.716Z,4.82
2022-08-07T06:50:18.924Z,5.50
2022-08-07T06:52:53.140Z,5.40
2022-08-07T06:55:47.914Z,5.20
2022-08-07T06:58:16.681Z,4.72
2022-08-07T07:00:57.347Z,4.93
2022-08-07T07:03:39.495Z,4.47
2022-08-07T07:06:11.765Z,5.50
2022-08-07T07:08:40.997Z,5.07
2022-08-07T07:12:07.823Z,5.28
2022-08-07T07:14:02.779Z,5.55
2022-08-07T07:16:45.015Z,4.80
2022-08-07T07:19:55.479Z,5.35
2022-08-07T07:22:36.214Z,4.60
2022-08-07T07:26:33.921Z,4.50
2022-08-07T07:28:29.937Z,4.68
2022-08-07T07:31:04.604Z,4.33
2022-08-07T07:33:35.974Z,3.60
2022-08-07T07:36:13.179Z,4.00
2022-08-07T07:38:43.421Z,4.20
2022-08-07T07:41:15.496Z,3.13
2022-08-07T07:43:47.971Z,3.17
2022-08-07T07:46:55.278Z,2.80
2022-08-07T07:50:35.274Z,3.13
2022-08-07T07:52:15.872Z,2.80
2022-08-07T07:54:50.891Z,3.50
2022-08-07T07:57:43.813Z,3.40
2022-08-07T08:00:09.452Z,2.92
2022-08-07T08:03:01.217Z,3.28
2022-08-07T08:05:30.267Z,3.17
2022-08-07T08:08:34.653Z,3.72
2022-08-07T08:11:08.596Z,3.33
2022-08-07T08:13:53.371Z,3.22
2022-08-07T08:16:29.705Z,3.78
2022-08-07T08:20:19.626Z,2.88
2022-08-07T08:22:24.062Z,3.05
2022-08-07T08:25:26.896Z,3.10
2022-08-07T08:28:16.922Z,2.90
2022-08-07T08:30:58.087Z,3.15
2022-08-07T08:33:33.222Z,2.72
2022-08-07T08:36:01.608Z,3.15
2022-08-07T08:38:40.583Z,3.13
2022-08-07T08:41:31.568Z,3.20
2022-08-07T08:44:44.674Z,3.00
2022-08-07T08:47:25.955Z,2.88
2022-08-07T08:50:05.020Z,3.50
2022-08-07T08:52:40.818Z,2.70
2022-08-07T08:55:55.211Z,3.10
2022-08-07T08:58:45.071Z,3.00
2022-08-07T09:01:19.818Z,2.38
2022-08-07T09:04:05.014Z,3.03
2022-08-07T09:06:47.665Z,2.50
2022-08-07T09:09:48.059Z,2.60
2022-08-07T09:12:31.835Z,2.58
2022-08-07T09:16:21.572Z,2.30
2022-08-07T09:18:35.019Z,2.78
2022-08-07T09:21:06.451Z,2.50
2022-08-07T09:24:54.865Z,2.60
2022-08-07T09:27:04.766Z,3.10
2022-08-07T09:30:04.787Z,2.53
2022-08-07T09:32:40.541Z,2.25
2022-08-07T09:36:02.927Z,2.40
2022-08-07T09:38:10.343Z,2.20
2022-08-07T09:41:05.838Z,2.60
2022-08-07T09:44:05.645Z,2.30
2022-08-07T09:47:52.425Z,2.15
2022-08-07T09:50:01.117Z,2.80
2022-08-07T09:52:56.147Z,2.15
2022-08-07T09:56:03.151Z,2.50
2022-08-07T09:58:57.736Z,1.90
2022-08-07T10:02:02.764Z,2.40
2022-08-07T10:05:12.737Z,2.27
2022-08-07T10:08:07.564Z,1.77
2022-08-07T10:11:59.069Z,2.33
2022-08-07T10:14:31.149Z,2.60
2022-08-07T10:18:01.293Z,2.50
2022-08-07T10:20:39.715Z,1.83
2022-08-07T10:24:05.956Z,2.30
2022-08-07T10:26:34.058Z,1.95
2022-08-07T10:29:30.511Z,1.80
2022-08-07T10:32:52.239Z,1.90
2022-08-07T10:35:55.723Z,1.80
2022-08-07T10:38:49.597Z,1.70
2022-08-07T10:41:52.145Z,1.73
2022-08-07T10:44:37.745Z,1.60
2022-08-07T10:47:27.018Z,1.77
2022-08-07T10:50:31.753Z,1.50
2022-08-07T10:53:44.316Z,1.63
2022-08-07T10:56:49.313Z,1.70
2022-08-07T10:59:23.987Z,1.60
2022-08-07T11:02:33.498Z,1.48
2022-08-07T11:05:50.515Z,1.70
2022-08-07T11:08:36.365Z,1.50
2022-08-07T11:11:21.049Z,1.92
2022-08-07T11:14:44.639Z,1.70
2022-08-07T11:17:23.137Z,1.52
2022-08-07T11:20:11.227Z,1.40
2022-08-07T11:23:09.290Z,1.35
2022-08-07T11:25:50.331Z,2.00
2022-08-07T11:28:53.302Z,1.75
2022-08-07T11:31:46.379Z,1.60
2022-08-07T11:34:42.502Z,1.57
2022-08-07T11:38:10.506Z,1.85
2022-08-07T11:40:54.316Z,1.92
2022-08-07T11:43:54.336Z,1.90
2022-08-07T11:46:36.688Z,1.70
2022-08-07T11:50:25.163Z,1.50
2022-08-07T11:53:06.673Z,1.58
2022-08-07T11:56:25.083Z,1.20
2022-08-07T12:00:08.061Z,1.67
2022-08-07T12:02:29.941Z,1.75
2022-08-07T12:05:28.600Z,1.37
2022-08-07T12:08:25.692Z,1.38
2022-08-07T12:11:21.279Z,1.73
2022-08-07T12:14:08.392Z,1.90
2022-08-07T12:16:51.124Z,1.95
2022-08-07T12:20:05.370Z,2.10
2022-08-07T12:22:56.012Z,1.90
2022-08-07T12:26:06.251Z,1.60
2022-08-07T12:29:02.967Z,2.00
2022-08-07T12:31:53.176Z,2.03
2022-08-07T12:34:32.886Z,2.40
2022-08-07T12:37:01.069Z,1.88
2022-08-07T12:39:43.605Z,1.90
2022-08-07T12:42:27.024Z,1.90
2022-08-07T12:44:57.997Z,2.00
2022-08-07T12:47:49.302Z,1.87
2022-08-07T12:50:34.383Z,1.67
2022-08-07T12:54:23.822Z,1.60
2022-08-07T12:56:33.407Z,1.70
2022-08-07T12:59:02.689Z,1.85
2022-08-07T13:02:12.709Z,1.70
2022-08-07T13:05:15.118Z,1.60
2022-08-07T13:08:20.458Z,1.65
2022-08-07T13:10:55.906Z,1.80
2022-08-07T13:14:00.652Z,1.80
2022-08-07T13:17:00.909Z,1.90
2022-08-07T13:19:50.551Z,1.70
2022-08-07T13:22:34.187Z,1.77
2022-08-07T13:25:04.137Z,1.67
2022-08-07T13:28:10.930Z,1.70
2022-08-07T13:30:41.281Z,1.60
2022-08-07T13:34:32.033Z,2.30
2022-08-07T13:36:26.075Z,1.77
2022-08-07T13:39:49.766Z,1.70
2022-08-07T13:42:03.032Z,1.98
2022-08-07T13:44:34.565Z,1.80
2022-08-07T13:47:09.318Z,2.03
2022-08-07T13:50:34.180Z,1.77
2022-08-07T13:52:39.532Z,2.10
2022-08-07T13:55:13.152Z,2.20
2022-08-07T13:58:01.682Z,2.37
2022-08-07T14:00:39.517Z,1.98
2022-08-07T14:03:30.015Z,2.33
2022-08-07T14:06:11.804Z,1.90
2022-08-07T14:08:48.702Z,2.10
2022-08-07T14:11:22.698Z,1.40
2022-08-07T14:13:55.690Z,2.03
2022-08-07T14:16:34.193Z,1.52
2022-08-07T14:19:11.199Z,1.75
2022-08-07T14:22:02.487Z,1.52
2022-08-07T14:24:37.426Z,1.43
2022-08-07T14:28:10.716Z,1.40
2022-08-07T14:30:11.600Z,1.33
2022-08-07T14:32:49.446Z,1.65
2022-08-07T14:35:45.176Z,1.52
2022-08-07T14:38:26.818Z,1.57
2022-08-07T14:41:15.038Z,1.67
2022-08-07T14:43:55.340Z,1.90
2022-08-07T14:46:31.357Z,1.50
2022-08-07T14:49:57.512Z,1.77
2022-08-07T14:52:03.662Z,1.30
2022-08-07T14:54:42.092Z,1.60
2022-08-07T14:57:19.608Z,1.30
2022-08-07T15:02:39.273Z,1.60
2022-08-07T15:05:19.689Z,1.60
2022-08-07T15:07:51.874Z,1.80
2022-08-07T15:10:26.226Z,1.77
2022-08-07T15:13:06.105Z,1.90
2022-08-07T15:15:52.628Z,1.75
2022-08-07T15:18:34.087Z,1.73
2022-08-07T15:21:43.721Z,1.70
2022-08-07T15:25:14.182Z,1.52
2022-08-07T15:26:56.590Z,1.77
2022-08-07T15:30:09.323Z,1.60
2022-08-07T15:32:12.800Z,1.23
2022-08-07T15:34:56.947Z,1.77
2022-08-07T15:37:29.281Z,1.80
2022-08-07T15:40:34.201Z,1.75
2022-08-07T15:43:10.679Z,2.50
2022-08-07T15:46:04.532Z,1.80
2022-08-07T15:49:03.738Z,1.60
2022-08-07T15:54:30.788Z,1.88
2022-08-07T15:57:10.591Z,2.05
2022-08-07T15:59:56.627Z,1.90
2022-08-07T16:02:29.914Z,2.17
2022-08-07T16:05:15.300Z,2.20
2022-08-07T16:08:33.647Z,2.30
2022-08-07T16:10:36.547Z,2.40
2022-08-07T16:13:58.764Z,2.03
2022-08-07T16:16:43.780Z,2.13
2022-08-07T16:19:59.473Z,2.15
2022-08-07T16:22:36.512Z,2.80
2022-08-07T16:25:53.976Z,2.20
2022-08-07T16:30:06.825Z,2.40
2022-08-07T16:31:51.290Z,2.00
2022-08-07T16:34:36.661Z,2.10
2022-08-07T16:38:09.307Z,2.00
2022-08-07T16:40:51.096Z,2.17
2022-08-07T16:44:02.460Z,2.03
2022-08-07T16:47:28.854Z,2.00
2022-08-07T16:50:27.837Z,2.00
2022-08-07T16:54:01.623Z,1.95
2022-08-07T16:56:20.565Z,2.20
2022-08-07T16:59:11.252Z,2.27
2022-08-07T17:02:03.005Z,1.92
2022-08-07T17:04:51.194Z,2.22
2022-08-07T17:07:55.191Z,2.13
2022-08-07T17:10:39.285Z,2.10
2022-08-07T17:13:41.379Z,1.90
2022-08-07T17:16:29.197Z,2.22
2022-08-07T17:19:04.706Z,2.95
2022-08-07T17:22:01.663Z,2.28
2022-08-07T17:25:11.683Z,2.55
2022-08-07T17:27:57.531Z,3.23
2022-08-07T17:30:30.171Z,3.20
2022-08-07T17:34:10.195Z,2.38
2022-08-07T17:36:19.978Z,2.10
2022-08-07T17:39:10.579Z,2.47
2022-08-07T17:42:14.113Z,2.33
2022-08-07T17:44:54.708Z,2.40
2022-08-07T17:47:38.525Z,2.35
2022-08-07T17:50:21.979Z,2.60
2022-08-07T17:53:59.432Z,2.70
2022-08-07T17:56:15.255Z,2.23
2022-08-07T17:58:50.432Z,2.70
2022-08-07T18:01:36.676Z,2.30
2022-08-07T18:04:35.145Z,2.38
2022-08-07T18:07:20.299Z,3.10
2022-08-07T18:10:09.793Z,3.20
2022-08-07T18:13:00.306Z,2.40
2022-08-07T18:16:33.022Z,2.58
2022-08-07T18:21:08.289Z,3.00
2022-08-07T18:22:43.513Z,2.38
2022-08-07T18:25:40.707Z,2.20
2022-08-07T18:28:35.481Z,2.88
2022-08-07T18:31:12.186Z,2.40
2022-08-07T18:34:39.257Z,2.30
2022-08-07T18:38:55.822Z,3.45
2022-08-07T18:41:08.128Z,2.13
2022-08-07T18:43:57.528Z,5.68
2022-08-07T18:46:47.280Z,2.92
2022-08-07T18:50:30.516Z,2.50
2022-08-07T18:52:54.196Z,2.70
2022-08-07T18:55:59.130Z,2.00
2022-08-07T18:58:40.196Z,2.20
2022-08-07T19:02:32.999Z,2.40
2022-08-07T19:04:54.568Z,2.55
2022-08-07T19:07:57.475Z,2.72
2022-08-07T19:10:31.281Z,3.10
2022-08-07T19:13:23.429Z,3.50
2022-08-07T19:16:05.847Z,3.65
2022-08-07T19:18:52.124Z,3.22
2022-08-07T19:21:44.299Z,3.50
2022-08-07T19:24:30.659Z,2.97
2022-08-07T19:28:30.745Z,3.63
2022-08-07T19:30:57.665Z,3.00
2022-08-07T19:32:52.468Z,2.83
2022-08-07T19:35:28.409Z,3.20
2022-08-07T19:38:16.132Z,2.90
2022-08-07T19:40:50.461Z,2.88
2022-08-07T19:43:50.223Z,3.20
2022-08-07T19:46:26.566Z,2.78
2022-08-07T19:49:07.202Z,3.10
2022-08-07T19:51:50.803Z,2.77
2022-08-07T19:54:31.491Z,2.65
2022-08-07T19:58:01.620Z,2.80
2022-08-07T19:59:59.752Z,3.03
2022-08-07T20:02:34.833Z,3.63
2022-08-07T20:05:09.720Z,3.30
2022-08-07T20:07:45.831Z,3.63
2022-08-07T20:10:38.024Z,3.08
2022-08-07T20:13:23.939Z,3.00
2022-08-07T20:15:59.495Z,3.25
2022-08-07T20:18:33.788Z,3.80
2022-08-07T20:21:14.279Z,3.65
2022-08-07T20:24:00.954Z,3.92
2022-08-07T20:26:45.065Z,3.40
2022-08-07T20:29:48.644Z,3.10
2022-08-07T20:32:05.607Z,3.10
2022-08-07T20:34:50.874Z,3.55
2022-08-07T20:37:29.918Z,4.00
2022-08-07T20:40:32.142Z,3.33
2022-08-07T20:42:57.164Z,3.38
2022-08-07T20:45:32.541Z,3.77
2022-08-07T20:48:25.864Z,3.58
2022-08-07T20:51:03.998Z,4.28
2022-08-07T20:54:03.730Z,3.78
2022-08-07T20:56:28.989Z,3.85
2022-08-07T20:59:02.609Z,4.67
2022-08-07T21:01:45.316Z,4.68
2022-08-07T21:04:22.666Z,5.03
2022-08-07T21:06:53.657Z,4.80
2022-08-07T21:09:24.499Z,4.05
2022-08-07T21:11:57.078Z,3.77
2022-08-07T21:14:32.515Z,3.78
2022-08-07T21:18:02.919Z,4.20
2022-08-07T21:20:04.685Z,4.72
2022-08-07T21:22:44.963Z,4.38
2022-08-07T21:25:44.384Z,4.00
2022-08-07T21:28:49.097Z,4.72
2022-08-07T21:32:47.152Z,4.88
2022-08-07T21:34:59.942Z,4.65
2022-08-07T21:37:58.972Z,4.80
2022-08-07T21:40:47.400Z,4.23
2022-08-07T21:43:56.732Z,4.32
2022-08-07T21:46:38.847Z,4.88
2022-08-07T21:49:27.033Z,5.40
2022-08-07T21:52:11.478Z,5.15
2022-08-07T21:54:52.543Z,5.10
2022-08-07T21:57:45.005Z,5.38
2022-08-07T22:00:25.142Z,4.40
2022-08-07T22:03:17.208Z,4.78
2022-08-07T22:05:58.516Z,5.20
2022-08-07T22:08:34.025Z,5.33
2022-08-07T22:11:03.841Z,5.03
2022-08-07T22:13:51.750Z,5.70
2022-08-07T22:16:46.163Z,5.50
2022-08-07T22:19:29.265Z,5.95
2022-08-07T22:22:28.985Z,6.33
2022-08-07T22:25:12.296Z,6.30
2022-08-07T22:28:20.006Z,5.95
2022-08-07T22:31:05.077Z,5.30
2022-08-07T22:33:57.226Z,6.20
2022-08-07T22:36:46.453Z,5.77
2022-08-07T22:39:23.817Z,6.65
2022-08-07T22:42:18.968Z,5.90
2022-08-07T22:44:58.373Z,5.78
2022-08-07T22:48:03.741Z,6.32
2022-08-07T22:51:38.697Z,6.23
2022-08-07T22:54:38.207Z,6.65
2022-08-07T22:57:29.919Z,6.65
2022-08-07T23:00:21.433Z,6.47
2022-08-07T23:03:20.149Z,6.15
2022-08-07T23:06:15.455Z,6.17
2022-08-07T23:10:06.296Z,6.72
2022-08-07T23:12:46.373Z,5.93
2022-08-07T23:16:06.870Z,6.82
2022-08-07T23:18:32.308Z,6.80
2022-08-07T23:21:29.848Z,6.40
2022-08-07T23:24:17.149Z,6.07
2022-08-07T23:27:01.297Z,6.35
2022-08-07T23:30:37.356Z,6.35
2022-08-07T23:34:36.540Z,8.32
2022-08-07T23:36:28.968Z,6.90
2022-08-07T23:39:04.760Z,6.97
2022-08-07T23:41:47.671Z,5.80
2022-08-07T23:45:01.208Z,6.60
2022-08-07T23:47:47.861Z,6.35
2022-08-07T23:50:33.464Z,6.10
2022-08-07T23:53:49.382Z,6.82
2022-08-07T23:56:23.402Z,6.60
